createdAt,value
2022-11-08T00:01:09.030Z,2.00
2022-11-08T00:06:49.742Z,2.10
2022-11-08T00:12:30.937Z,1.80
2022-11-08T00:17:53.388Z,2.20
2022-11-08T00:23:15.898Z,1.80
2022-11-08T00:28:37.999Z,2.00
2022-11-08T00:34:00.203Z,1.97
2022-11-08T00:39:22.263Z,1.83
2022-11-08T00:44:44.649Z,1.90
2022-11-08T00:50:07.135Z,1.93
2022-11-08T00:55:29.371Z,1.70
2022-11-08T01:00:51.844Z,1.60
2022-11-08T01:06:15.794Z,2.00
2022-11-08T01:11:39.492Z,2.03
2022-11-08T01:17:01.882Z,2.20
2022-11-08T01:22:24.337Z,1.90
2022-11-08T01:27:46.510Z,1.90
2022-11-08T01:33:09.238Z,1.83
2022-11-08T01:38:31.509Z,2.00
2022-11-08T01:43:58.317Z,2.10
2022-11-08T01:49:46.075Z,2.00
2022-11-08T01:55:30.502Z,2.10
2022-11-08T02:00:53.338Z,2.03
2022-11-08T02:06:16.370Z,2.23
2022-11-08T02:11:39.873Z,1.90
2022-11-08T02:17:02.193Z,1.93
2022-11-08T02:22:33.490Z,2.33
2022-11-08T02:27:56.164Z,2.03
2022-11-08T02:33:21.870Z,2.33
2022-11-08T02:38:52.617Z,2.17
2022-11-08T02:44:14.804Z,2.70
2022-11-08T02:49:37.290Z,2.53
2022-11-08T02:54:59.436Z,2.23
2022-11-08T03:00:21.822Z,2.10
2022-11-08T03:05:44.040Z,2.37
2022-11-08T03:11:06.497Z,2.10
2022-11-08T03:16:29.828Z,1.90
2022-11-08T03:21:52.248Z,1.93
2022-11-08T03:27:15.344Z,2.10
2022-11-08T03:32:37.613Z,2.00
2022-11-08T03:37:59.687Z,1.83
2022-11-08T03:43:22.106Z,1.90
2022-11-08T03:48:44.382Z,1.90
2022-11-08T03:54:06.685Z,2.03
2022-11-08T03:59:28.860Z,2.20
2022-11-08T04:04:51.346Z,2.43
2022-11-08T04:10:14.308Z,2.67
2022-11-08T04:15:36.888Z,1.90
2022-11-08T04:21:19.159Z,1.80
2022-11-08T04:26:41.593Z,2.50
2022-11-08T04:32:03.910Z,1.80
2022-11-08T04:37:26.202Z,1.80
2022-11-08T04:42:48.621Z,2.10
2022-11-08T04:48:11.496Z,2.10
2022-11-08T04:53:34.439Z,1.80
2022-11-08T04:58:58.735Z,1.77
2022-11-08T05:04:20.915Z,1.63
2022-11-08T05:09:43.182Z,2.20
2022-11-08T05:15:05.794Z,2.00
2022-11-08T05:20:46.794Z,2.03
2022-11-08T05:26:09.388Z,1.80
2022-11-08T05:31:32.473Z,2.30
2022-11-08T05:36:54.600Z,2.33
2022-11-08T05:42:17.497Z,2.27
2022-11-08T05:47:44.716Z,2.30
2022-11-08T05:53:06.876Z,1.80
2022-11-08T05:58:31.193Z,2.10
2022-11-08T06:03:53.766Z,2.20
2022-11-08T06:09:16.061Z,2.20
2022-11-08T06:14:38.202Z,2.43
2022-11-08T06:20:00.446Z,2.53
2022-11-08T06:25:23.326Z,2.63
2022-11-08T06:30:45.579Z,2.57
2022-11-08T06:36:07.995Z,2.70
2022-11-08T06:41:30.553Z,2.87
2022-11-08T06:46:55.842Z,2.63
2022-11-08T06:52:18.310Z,2.70
2022-11-08T06:57:40.726Z,2.80
2022-11-08T07:03:04.311Z,3.13
2022-11-08T07:08:26.641Z,2.97
2022-11-08T07:13:48.841Z,2.90
2022-11-08T07:19:11.163Z,2.90
2022-11-08T07:24:33.569Z,2.83
2022-11-08T07:29:55.916Z,2.80
2022-11-08T07:35:19.336Z,2.77
2022-11-08T07:40:41.900Z,3.60
2022-11-08T07:46:04.394Z,4.50
2022-11-08T07:51:26.883Z,3.67
2022-11-08T07:56:49.038Z,3.40
2022-11-08T08:02:12.471Z,3.63
2022-11-08T08:07:35.926Z,4.17
2022-11-08T08:12:58.695Z,4.13
2022-11-08T08:18:21.787Z,4.00
2022-11-08T08:23:44.272Z,4.70
2022-11-08T08:29:06.629Z,3.87
2022-11-08T08:34:29.101Z,4.33
2022-11-08T08:39:51.207Z,3.83
2022-11-08T08:45:15.141Z,4.20
2022-11-08T08:50:37.462Z,3.97
2022-11-08T08:55:59.779Z,3.67
2022-11-08T09:01:37.902Z,4.00
2022-11-08T09:07:00.486Z,3.70
2022-11-08T09:12:23.349Z,3.00
2022-11-08T09:17:45.458Z,3.00
2022-11-08T09:23:07.700Z,2.83
2022-11-08T09:28:34.515Z,3.33
2022-11-08T09:33:57.006Z,3.03
2022-11-08T09:39:19.362Z,2.90
2022-11-08T09:44:53.489Z,2.80
2022-11-08T09:50:22.691Z,2.30
2022-11-08T09:55:51.886Z,2.40
2022-11-08T10:01:14.420Z,2.43
2022-11-08T10:06:56.876Z,3.00
2022-11-08T10:12:30.321Z,2.30
2022-11-08T10:18:19.794Z,1.93
2022-11-08T10:23:48.218Z,2.27
2022-11-08T10:29:23.450Z,2.10
2022-11-08T10:34:56.265Z,2.27
2022-11-08T10:40:44.998Z,1.80
2022-11-08T10:46:33.018Z,2.07
2022-11-08T10:52:16.951Z,1.80
2022-11-08T10:57:43.936Z,2.50
2022-11-08T11:03:06.359Z,1.40
2022-11-08T11:08:29.061Z,1.33
2022-11-08T11:14:18.155Z,1.33
2022-11-08T11:19:53.837Z,1.80
2022-11-08T11:25:19.329Z,1.73
2022-11-08T11:30:42.258Z,1.37
2022-11-08T11:36:13.172Z,1.60
2022-11-08T11:41:58.515Z,1.90
2022-11-08T11:47:44.859Z,1.58
2022-11-08T11:53:22.942Z,1.30
2022-11-08T11:58:51.570Z,1.30
2022-11-08T12:04:42.488Z,1.40
2022-11-08T12:10:17.382Z,1.30
2022-11-08T12:16:04.577Z,1.17
2022-11-08T12:21:46.448Z,1.33
2022-11-08T12:27:37.817Z,1.67
2022-11-08T12:33:38.539Z,1.83
2022-11-08T12:39:23.161Z,0.90
2022-11-08T12:45:07.435Z,1.10
2022-11-08T12:51:01.577Z,1.23
2022-11-08T12:56:41.543Z,1.27
2022-11-08T13:02:12.284Z,1.33
2022-11-08T13:07:59.205Z,1.30
2022-11-08T13:13:48.344Z,1.42
2022-11-08T13:19:46.670Z,1.40
2022-11-08T13:25:12.095Z,1.45
2022-11-08T13:30:38.367Z,1.52
2022-11-08T13:36:23.583Z,1.17
2022-11-08T13:42:05.004Z,1.00
2022-11-08T13:47:33.786Z,1.40
2022-11-08T13:53:11.497Z,1.27
2022-11-08T13:58:42.594Z,1.50
2022-11-08T14:04:24.137Z,1.60
2022-11-08T14:09:49.428Z,1.40
2022-11-08T14:15:26.135Z,1.45
2022-11-08T14:20:50.126Z,1.67
2022-11-08T14:26:16.132Z,1.03
2022-11-08T14:31:38.723Z,1.53
2022-11-08T14:37:02.170Z,1.40
2022-11-08T14:42:26.477Z,1.30
2022-11-08T14:47:54.374Z,1.23
2022-11-08T14:53:28.622Z,1.50
2022-11-08T14:58:52.774Z,1.30
2022-11-08T15:04:21.050Z,1.60
2022-11-08T15:09:43.560Z,2.13
2022-11-08T15:15:07.831Z,1.73
2022-11-08T15:20:30.486Z,1.90
2022-11-08T15:25:57.938Z,1.50
2022-11-08T15:31:20.628Z,1.80
2022-11-08T15:36:43.004Z,1.57
2022-11-08T15:42:14.317Z,2.17
2022-11-08T15:47:43.687Z,1.67
2022-11-08T15:53:06.453Z,1.73
2022-11-08T15:58:32.510Z,1.80
2022-11-08T16:03:54.933Z,1.57
2022-11-08T16:09:17.012Z,1.77
2022-11-08T16:14:40.599Z,1.47
2022-11-08T16:20:03.211Z,2.20
2022-11-08T16:25:28.106Z,1.90
2022-11-08T16:30:50.463Z,1.97
2022-11-08T16:36:21.498Z,2.00
2022-11-08T16:41:44.942Z,1.73
2022-11-08T16:47:16.081Z,2.03
2022-11-08T16:52:38.586Z,1.97
2022-11-08T16:58:00.633Z,1.80
2022-11-08T17:03:25.270Z,1.80
2022-11-08T17:08:48.263Z,2.53
2022-11-08T17:14:12.549Z,2.43
2022-11-08T17:19:34.641Z,2.87
2022-11-08T17:24:56.995Z,2.87
2022-11-08T17:30:25.369Z,2.57
2022-11-08T17:35:49.022Z,2.47
2022-11-08T17:41:13.679Z,2.50
2022-11-08T17:46:35.972Z,2.20
2022-11-08T17:51:58.520Z,2.73
2022-11-08T17:57:20.750Z,2.27
2022-11-08T18:02:43.453Z,2.93
2022-11-08T18:08:06.037Z,2.50
2022-11-08T18:13:29.029Z,2.30
2022-11-08T18:18:53.026Z,2.93
2022-11-08T18:24:15.390Z,1.97
2022-11-08T18:29:37.476Z,3.00
2022-11-08T18:35:00.093Z,3.97
2022-11-08T18:40:23.184Z,5.37
2022-11-08T18:45:45.328Z,4.97
2022-11-08T18:51:10.997Z,6.00
2022-11-08T18:56:33.871Z,5.30
2022-11-08T19:01:56.178Z,7.53
2022-11-08T19:07:18.738Z,5.50
2022-11-08T19:12:41.397Z,4.30
2022-11-08T19:18:04.697Z,3.20
2022-11-08T19:23:27.392Z,3.00
2022-11-08T19:28:51.180Z,3.33
2022-11-08T19:34:13.883Z,4.43
2022-11-08T19:39:37.191Z,3.47
2022-11-08T19:45:01.089Z,2.60
2022-11-08T19:50:23.525Z,2.93
2022-11-08T19:55:46.152Z,2.97
2022-11-08T20:01:09.957Z,3.17
2022-11-08T20:06:33.690Z,2.73
2022-11-08T20:11:56.103Z,2.90
2022-11-08T20:17:19.029Z,2.53
2022-11-08T20:22:44.304Z,2.53
2022-11-08T20:28:12.540Z,2.83
2022-11-08T20:33:36.994Z,2.73
2022-11-08T20:39:03.667Z,3.20
2022-11-08T20:44:28.974Z,3.13
2022-11-08T20:49:51.321Z,3.10
2022-11-08T20:55:14.169Z,3.20
2022-11-08T21:00:57.322Z,2.70
2022-11-08T21:06:23.502Z,3.33
2022-11-08T21:11:45.731Z,2.90
2022-11-08T21:17:21.479Z,3.10
2022-11-08T21:22:44.230Z,2.60
2022-11-08T21:28:07.071Z,3.13
2022-11-08T21:33:29.575Z,2.77
2022-11-08T21:38:51.686Z,2.97
2022-11-08T21:44:14.279Z,2.83
2022-11-08T21:49:36.451Z,3.27
2022-11-08T21:54:59.005Z,2.90
2022-11-08T22:00:21.608Z,3.03
2022-11-08T22:05:45.075Z,3.47
2022-11-08T22:11:07.831Z,3.17
2022-11-08T22:16:30.413Z,3.37
2022-11-08T22:21:52.900Z,2.67
2022-11-08T22:27:15.139Z,3.20
2022-11-08T22:32:38.168Z,2.90
2022-11-08T22:38:00.321Z,2.77
2022-11-08T22:43:22.880Z,2.93
2022-11-08T22:48:45.665Z,2.60
2022-11-08T22:54:08.756Z,2.77
2022-11-08T22:59:31.079Z,3.00
2022-11-08T23:04:53.573Z,2.90
2022-11-08T23:10:16.070Z,2.73
2022-11-08T23:15:57.031Z,2.80
2022-11-08T23:21:41.947Z,3.23
2022-11-08T23:27:23.557Z,3.20
2022-11-08T23:32:48.319Z,2.80
2022-11-08T23:38:10.815Z,3.40
2022-11-08T23:43:51.285Z,3.00
2022-11-08T23:49:13.677Z,2.87
2022-11-08T23:54:36.105Z,3.20
2022-11-08T23:59:58.390Z,3.13
